createdAt,value
2022-09-22T00:01:33.316Z,4.63
2022-09-22T00:04:03.629Z,3.67
2022-09-22T00:06:34.194Z,7.13
2022-09-22T00:09:03.342Z,3.87
2022-09-22T00:11:36.027Z,3.43
2022-09-22T00:14:08.000Z,6.17
2022-09-22T00:16:39.019Z,4.73
2022-09-22T00:19:07.836Z,3.77
2022-09-22T00:21:36.011Z,4.20
2022-09-22T00:24:04.992Z,3.67
2022-09-22T00:26:33.005Z,4.10
2022-09-22T00:29:01.658Z,4.03
2022-09-22T00:31:31.843Z,3.17
2022-09-22T00:33:59.991Z,2.90
2022-09-22T00:36:29.026Z,3.07
2022-09-22T00:38:58.625Z,2.70
2022-09-22T00:41:29.355Z,3.20
2022-09-22T00:44:40.399Z,3.27
2022-09-22T00:47:30.048Z,3.03
2022-09-22T00:50:01.521Z,2.63
2022-09-22T00:52:33.988Z,2.30
2022-09-22T00:55:05.745Z,3.00
2022-09-22T00:57:37.244Z,2.70
2022-09-22T01:00:08.786Z,3.57
2022-09-22T01:02:38.596Z,2.43
2022-09-22T01:05:07.817Z,4.13
2022-09-22T01:07:37.138Z,3.03
2022-09-22T01:10:05.338Z,3.60
2022-09-22T01:12:33.549Z,8.37
2022-09-22T01:15:12.258Z,3.40
2022-09-22T01:17:53.829Z,3.57
2022-09-22T01:21:02.394Z,3.93
2022-09-22T01:23:54.029Z,3.50
2022-09-22T01:26:55.092Z,2.97
2022-09-22T01:29:50.442Z,3.87
2022-09-22T01:32:26.004Z,5.27
2022-09-22T01:34:59.977Z,4.10
2022-09-22T01:37:33.784Z,2.93
2022-09-22T01:40:08.584Z,3.37
2022-09-22T01:42:42.039Z,4.50
2022-09-22T01:45:12.324Z,2.50
2022-09-22T01:47:46.823Z,6.60
2022-09-22T01:50:20.065Z,2.83
2022-09-22T01:52:49.126Z,4.50
2022-09-22T01:55:21.873Z,2.50
2022-09-22T01:57:53.441Z,3.70
2022-09-22T02:00:23.074Z,2.97
2022-09-22T02:02:58.282Z,3.83
2022-09-22T02:05:31.116Z,3.23
2022-09-22T02:08:02.986Z,2.87
2022-09-22T02:10:44.273Z,4.40
2022-09-22T02:13:12.824Z,3.17
2022-09-22T02:15:55.014Z,2.60
2022-09-22T02:18:28.690Z,3.33
2022-09-22T02:20:57.998Z,8.23
2022-09-22T02:23:26.311Z,2.93
2022-09-22T02:25:57.044Z,2.77
2022-09-22T02:28:25.889Z,4.03
2022-09-22T02:31:17.945Z,2.10
2022-09-22T02:33:45.780Z,2.03
2022-09-22T02:36:26.059Z,2.73
2022-09-22T02:39:02.332Z,3.50
2022-09-22T02:41:38.971Z,3.83
2022-09-22T02:44:11.673Z,1.90
2022-09-22T02:46:44.308Z,2.03
2022-09-22T02:49:17.926Z,2.00
2022-09-22T02:51:49.341Z,1.73
2022-09-22T02:54:17.404Z,2.80
2022-09-22T02:56:45.742Z,1.60
2022-09-22T02:59:14.063Z,2.97
2022-09-22T03:01:42.025Z,2.20
2022-09-22T03:04:10.021Z,2.00
2022-09-22T03:06:39.298Z,2.50
2022-09-22T03:09:07.474Z,2.10
2022-09-22T03:11:35.450Z,2.40
2022-09-22T03:14:03.496Z,1.67
2022-09-22T03:16:31.496Z,2.13
2022-09-22T03:18:59.624Z,2.67
2022-09-22T03:21:27.695Z,2.37
2022-09-22T03:23:57.390Z,3.53
2022-09-22T03:26:25.521Z,2.73
2022-09-22T03:28:53.462Z,3.00
2022-09-22T03:31:21.441Z,1.77
2022-09-22T03:33:52.706Z,2.93
2022-09-22T03:36:21.018Z,2.27
2022-09-22T03:38:48.998Z,1.83
2022-09-22T03:41:18.411Z,2.47
2022-09-22T03:43:46.392Z,1.87
2022-09-22T03:46:14.904Z,2.40
2022-09-22T03:48:45.119Z,2.37
2022-09-22T03:51:13.613Z,2.00
2022-09-22T03:53:41.661Z,2.10
2022-09-22T03:56:11.602Z,2.10
2022-09-22T03:58:42.130Z,2.57
2022-09-22T04:01:11.211Z,2.50
2022-09-22T04:03:40.953Z,1.60
2022-09-22T04:06:09.539Z,1.90
2022-09-22T04:08:37.963Z,1.93
2022-09-22T04:11:06.774Z,2.63
2022-09-22T04:13:35.393Z,2.30
2022-09-22T04:16:05.917Z,1.70
2022-09-22T04:18:34.246Z,2.80
2022-09-22T04:21:02.218Z,2.53
2022-09-22T04:23:30.275Z,2.23
2022-09-22T04:25:58.342Z,2.23
2022-09-22T04:28:26.332Z,2.47
2022-09-22T04:30:54.670Z,2.33
2022-09-22T04:33:25.030Z,2.57
2022-09-22T04:35:54.125Z,3.50
2022-09-22T04:38:25.059Z,2.13
2022-09-22T04:40:55.579Z,2.53
2022-09-22T04:43:24.387Z,2.33
2022-09-22T04:45:53.077Z,2.23
2022-09-22T04:48:23.170Z,3.40
2022-09-22T04:50:56.166Z,2.80
2022-09-22T04:53:25.564Z,3.90
2022-09-22T04:56:09.260Z,2.97
2022-09-22T04:58:40.295Z,2.10
2022-09-22T05:01:10.446Z,2.20
2022-09-22T05:03:43.100Z,2.27
2022-09-22T05:06:13.212Z,3.33
2022-09-22T05:08:56.034Z,2.73
2022-09-22T05:11:27.586Z,2.20
2022-09-22T05:13:57.609Z,3.33
2022-09-22T05:16:32.663Z,2.70
2022-09-22T05:19:08.089Z,3.07
2022-09-22T05:21:43.607Z,2.87
2022-09-22T05:24:17.286Z,3.23
2022-09-22T05:26:56.578Z,3.77
2022-09-22T05:29:28.017Z,3.07
2022-09-22T05:31:57.838Z,3.70
2022-09-22T05:34:29.750Z,3.70
2022-09-22T05:37:04.503Z,2.73
2022-09-22T05:39:36.828Z,4.20
2022-09-22T05:42:20.091Z,2.83
2022-09-22T05:44:59.874Z,2.37
2022-09-22T05:47:35.389Z,3.03
2022-09-22T05:50:07.439Z,3.20
2022-09-22T05:52:40.673Z,3.53
2022-09-22T05:55:10.428Z,4.57
2022-09-22T05:57:39.344Z,2.93
2022-09-22T06:00:11.104Z,3.83
2022-09-22T06:02:44.745Z,3.27
2022-09-22T06:05:15.703Z,2.63
2022-09-22T06:07:47.714Z,3.47
2022-09-22T06:10:18.033Z,3.03
2022-09-22T06:12:46.536Z,2.03
2022-09-22T06:15:14.721Z,3.53
2022-09-22T06:17:43.209Z,4.00
2022-09-22T06:20:11.744Z,6.03
2022-09-22T06:22:39.960Z,11.03
2022-09-22T06:25:10.695Z,3.67
2022-09-22T06:27:40.086Z,2.67
2022-09-22T06:30:11.243Z,3.07
2022-09-22T06:32:40.432Z,5.10
2022-09-22T06:35:09.445Z,4.50
2022-09-22T06:37:38.683Z,3.77
2022-09-22T06:40:11.966Z,3.03
2022-09-22T06:42:43.722Z,3.53
2022-09-22T06:45:12.735Z,4.17
2022-09-22T06:47:41.837Z,2.50
2022-09-22T06:50:11.047Z,5.17
2022-09-22T06:52:39.693Z,2.60
2022-09-22T06:55:10.743Z,1.93
2022-09-22T06:57:38.997Z,4.80
2022-09-22T07:00:08.581Z,2.37
2022-09-22T07:02:38.919Z,2.73
2022-09-22T07:05:21.192Z,2.80
2022-09-22T07:07:58.228Z,3.00
2022-09-22T07:10:27.939Z,2.10
2022-09-22T07:12:56.520Z,2.20
2022-09-22T07:15:24.853Z,2.60
2022-09-22T07:17:54.045Z,1.47
2022-09-22T07:20:23.609Z,2.67
2022-09-22T07:23:00.640Z,2.33
2022-09-22T07:25:35.869Z,3.17
2022-09-22T07:28:06.349Z,2.07
2022-09-22T07:30:38.187Z,1.50
2022-09-22T07:33:06.388Z,1.67
2022-09-22T07:35:37.952Z,1.93
2022-09-22T07:38:07.473Z,1.60
2022-09-22T07:40:37.173Z,1.70
2022-09-22T07:43:08.163Z,2.00
2022-09-22T07:45:36.479Z,1.63
2022-09-22T07:48:24.296Z,1.67
2022-09-22T07:51:00.091Z,1.73
2022-09-22T07:53:28.335Z,1.30
2022-09-22T07:56:03.587Z,2.37
2022-09-22T07:58:31.959Z,1.57
2022-09-22T08:01:00.390Z,1.73
2022-09-22T08:03:28.804Z,1.70
2022-09-22T08:06:06.105Z,3.30
2022-09-22T08:08:34.700Z,1.50
2022-09-22T08:11:13.723Z,1.30
2022-09-22T08:13:43.004Z,1.90
2022-09-22T08:16:11.897Z,1.30
2022-09-22T08:18:40.951Z,2.17
2022-09-22T08:21:09.166Z,1.30
2022-09-22T08:23:38.312Z,1.57
2022-09-22T08:26:08.440Z,0.97
2022-09-22T08:28:38.187Z,0.93
2022-09-22T08:31:13.392Z,0.90
2022-09-22T08:33:42.715Z,1.83
2022-09-22T08:36:11.255Z,1.30
2022-09-22T08:38:39.621Z,1.30
2022-09-22T08:41:19.786Z,0.90
2022-09-22T08:43:55.201Z,1.73
2022-09-22T08:46:30.562Z,1.03
2022-09-22T08:49:22.729Z,1.17
2022-09-22T08:51:54.982Z,1.07
2022-09-22T08:54:28.006Z,1.63
2022-09-22T08:57:12.615Z,0.80
2022-09-22T08:59:47.032Z,1.47
2022-09-22T09:02:41.276Z,0.80
2022-09-22T09:05:45.993Z,2.23
2022-09-22T09:08:46.617Z,0.70
2022-09-22T09:11:27.047Z,1.17
2022-09-22T09:14:13.705Z,1.10
2022-09-22T09:16:53.503Z,0.70
2022-09-22T09:19:31.757Z,0.70
2022-09-22T09:22:04.056Z,1.10
2022-09-22T09:27:27.137Z,0.80
2022-09-22T09:30:04.456Z,1.00
2022-09-22T09:32:43.359Z,0.83
2022-09-22T09:35:15.518Z,1.10
2022-09-22T09:37:46.069Z,0.77
2022-09-22T09:40:18.766Z,0.83
2022-09-22T09:42:51.114Z,1.30
2022-09-22T09:45:26.943Z,1.50
2022-09-22T09:48:09.710Z,1.67
2022-09-22T09:50:37.958Z,1.27
2022-09-22T09:53:08.624Z,0.90
2022-09-22T09:55:36.841Z,0.73
2022-09-22T09:58:07.693Z,2.10
2022-09-22T10:00:52.866Z,1.43
2022-09-22T10:03:27.940Z,1.70
2022-09-22T10:06:00.313Z,0.90
2022-09-22T10:08:32.048Z,1.33
2022-09-22T10:11:02.034Z,1.90
2022-09-22T10:13:33.615Z,1.53
2022-09-22T10:16:30.874Z,0.80
2022-09-22T10:19:22.400Z,1.33
2022-09-22T10:21:51.043Z,1.70
2022-09-22T10:24:31.738Z,1.10
2022-09-22T10:27:02.620Z,1.17
2022-09-22T10:29:33.704Z,2.60
2022-09-22T10:32:12.515Z,1.43
2022-09-22T10:37:16.884Z,1.73
2022-09-22T10:39:48.048Z,3.87
2022-09-22T10:42:25.701Z,1.83
2022-09-22T10:44:57.314Z,3.03
2022-09-22T10:47:34.035Z,1.53
2022-09-22T10:50:34.945Z,2.40
2022-09-22T10:53:20.691Z,1.30
2022-09-22T10:55:56.830Z,1.30
2022-09-22T10:58:37.748Z,0.60
2022-09-22T11:01:18.755Z,1.00
2022-09-22T11:04:15.203Z,1.40
2022-09-22T11:07:16.090Z,1.57
2022-09-22T11:10:11.712Z,1.67
2022-09-22T11:12:52.310Z,0.97
2022-09-22T11:15:33.366Z,1.10
2022-09-22T11:18:13.819Z,0.67
2022-09-22T11:20:43.307Z,2.33
2022-09-22T11:23:46.565Z,0.60
2022-09-22T11:26:30.109Z,0.90
2022-09-22T11:29:22.309Z,1.33
2022-09-22T11:32:01.464Z,0.67
2022-09-22T11:35:01.254Z,1.93
2022-09-22T11:37:43.090Z,0.73
2022-09-22T11:40:37.934Z,0.77
2022-09-22T11:43:27.093Z,1.20
2022-09-22T11:46:02.749Z,1.53
2022-09-22T11:48:41.453Z,0.80
2022-09-22T11:51:37.845Z,1.20
2022-09-22T11:54:30.570Z,0.77
2022-09-22T11:57:04.222Z,0.93
2022-09-22T11:59:39.614Z,0.60
2022-09-22T12:02:18.716Z,0.63
2022-09-22T12:04:53.747Z,0.70
2022-09-22T12:07:28.876Z,0.50
2022-09-22T12:10:01.787Z,2.77
2022-09-22T12:12:33.610Z,0.50
2022-09-22T12:15:11.080Z,1.43
2022-09-22T12:17:50.975Z,1.10
2022-09-22T12:20:34.339Z,0.93
2022-09-22T12:23:20.904Z,0.70
2022-09-22T12:25:54.037Z,1.23
2022-09-22T12:28:32.396Z,1.00
2022-09-22T12:31:06.417Z,1.20
2022-09-22T12:33:39.138Z,0.70
2022-09-22T12:36:10.244Z,1.07
2022-09-22T12:38:39.371Z,0.90
2022-09-22T12:41:12.485Z,1.40
2022-09-22T12:43:44.583Z,0.60
2022-09-22T12:46:32.444Z,0.80
2022-09-22T12:49:01.177Z,0.50
2022-09-22T12:51:36.083Z,0.60
2022-09-22T12:54:44.311Z,0.53
2022-09-22T12:57:30.788Z,0.47
2022-09-22T13:00:32.802Z,0.47
2022-09-22T13:03:03.489Z,0.60
2022-09-22T13:05:53.813Z,1.13
2022-09-22T13:08:27.350Z,1.00
2022-09-22T13:11:02.334Z,0.60
2022-09-22T13:13:42.843Z,0.63
2022-09-22T13:16:41.326Z,0.80
2022-09-22T13:19:14.946Z,1.53
2022-09-22T13:21:45.288Z,0.70
2022-09-22T13:24:25.101Z,0.57
2022-09-22T13:27:05.808Z,1.20
2022-09-22T13:29:36.792Z,2.03
2022-09-22T13:32:27.133Z,0.83
2022-09-22T13:35:00.613Z,0.70
2022-09-22T13:37:29.502Z,1.30
2022-09-22T13:39:58.692Z,0.87
2022-09-22T13:42:33.429Z,0.50
2022-09-22T13:45:07.855Z,0.83
2022-09-22T13:47:40.160Z,1.53
2022-09-22T13:50:13.537Z,1.90
2022-09-22T13:52:42.649Z,1.73
2022-09-22T13:55:15.805Z,0.70
2022-09-22T13:57:44.150Z,1.10
2022-09-22T14:00:21.403Z,0.80
2022-09-22T14:02:51.270Z,1.77
2022-09-22T14:05:21.968Z,1.50
2022-09-22T14:08:10.564Z,0.60
2022-09-22T14:10:38.842Z,1.13
2022-09-22T14:13:06.840Z,0.73
2022-09-22T14:15:43.199Z,0.77
2022-09-22T14:18:19.251Z,0.60
2022-09-22T14:20:48.589Z,0.70
2022-09-22T14:23:19.845Z,1.70
2022-09-22T14:25:48.062Z,1.03
2022-09-22T14:28:22.368Z,0.50
2022-09-22T14:30:51.101Z,1.03
2022-09-22T14:33:23.451Z,0.60
2022-09-22T14:35:52.840Z,1.03
2022-09-22T14:38:23.903Z,1.10
2022-09-22T14:40:54.040Z,0.80
2022-09-22T14:43:25.036Z,1.20
2022-09-22T14:45:58.088Z,2.73
2022-09-22T14:48:31.964Z,0.53
2022-09-22T14:51:03.432Z,1.90
2022-09-22T14:53:34.408Z,0.63
2022-09-22T14:56:05.910Z,0.77
2022-09-22T14:58:40.427Z,0.53
2022-09-22T15:01:39.503Z,1.00
2022-09-22T15:04:16.412Z,0.97
2022-09-22T15:06:46.500Z,1.27
2022-09-22T15:09:27.719Z,0.60
2022-09-22T15:11:58.898Z,1.17
2022-09-22T15:14:42.223Z,0.80
2022-09-22T15:17:53.650Z,0.90
2022-09-22T15:20:24.852Z,0.70
2022-09-22T15:22:54.039Z,0.80
2022-09-22T15:25:22.615Z,0.80
2022-09-22T15:27:51.577Z,1.23
2022-09-22T15:30:20.405Z,1.07
2022-09-22T15:32:48.759Z,1.27
2022-09-22T15:35:18.504Z,1.13
2022-09-22T15:37:50.213Z,1.23
2022-09-22T15:40:21.955Z,0.90
2022-09-22T15:43:12.337Z,1.30
2022-09-22T15:45:47.637Z,2.20
2022-09-22T15:48:26.119Z,0.80
2022-09-22T15:50:55.169Z,1.67
2022-09-22T15:53:25.557Z,1.37
2022-09-22T15:55:55.108Z,1.83
2022-09-22T15:58:24.133Z,1.77
2022-09-22T16:00:53.415Z,0.70
2022-09-22T16:03:24.223Z,0.63
2022-09-22T16:05:57.025Z,0.80
2022-09-22T16:08:31.363Z,0.97
2022-09-22T16:11:05.542Z,0.63
2022-09-22T16:13:34.072Z,0.77
2022-09-22T16:16:03.137Z,0.63
2022-09-22T16:18:32.888Z,1.10
2022-09-22T16:21:05.418Z,1.93
2022-09-22T16:23:34.981Z,1.97
2022-09-22T16:26:02.997Z,1.40
2022-09-22T16:28:31.530Z,1.00
2022-09-22T16:31:03.193Z,0.50
2022-09-22T16:33:31.621Z,5.00
2022-09-22T16:35:59.979Z,4.13
2022-09-22T16:38:28.521Z,5.33
2022-09-22T16:41:05.078Z,6.03
2022-09-22T16:43:33.851Z,7.37
2022-09-22T16:46:19.665Z,16.53
2022-09-22T16:48:47.696Z,8.07
2022-09-22T16:51:19.306Z,8.50
2022-09-22T16:53:53.784Z,12.63
2022-09-22T16:56:25.162Z,5.57
2022-09-22T16:58:54.454Z,14.70
2022-09-22T17:01:23.683Z,11.00
2022-09-22T17:03:53.777Z,13.73
2022-09-22T17:06:25.041Z,8.83
2022-09-22T17:08:53.616Z,4.73
2022-09-22T17:11:29.301Z,14.43
2022-09-22T17:14:01.358Z,5.43
2022-09-22T17:16:31.237Z,5.50
2022-09-22T17:19:02.437Z,7.37
2022-09-22T17:21:34.259Z,5.17
2022-09-22T17:24:04.042Z,9.20
2022-09-22T17:26:35.638Z,5.17
2022-09-22T17:29:04.112Z,4.30
2022-09-22T17:31:32.382Z,4.27
2022-09-22T17:34:00.598Z,5.57
2022-09-22T17:36:30.144Z,6.63
2022-09-22T17:38:59.963Z,5.67
2022-09-22T17:41:32.631Z,5.13
2022-09-22T17:44:03.329Z,3.70
2022-09-22T17:46:34.279Z,3.53
2022-09-22T17:49:20.133Z,3.77
2022-09-22T17:52:06.702Z,4.70
2022-09-22T17:54:54.125Z,5.97
2022-09-22T17:57:24.280Z,5.43
2022-09-22T17:59:55.130Z,3.80
2022-09-22T18:02:24.835Z,4.17
2022-09-22T18:04:52.875Z,7.27
2022-09-22T18:07:22.485Z,7.20
2022-09-22T18:09:52.434Z,4.80
2022-09-22T18:12:22.949Z,5.00
2022-09-22T18:14:53.291Z,10.17
2022-09-22T18:17:23.278Z,4.33
2022-09-22T18:19:54.442Z,4.83
2022-09-22T18:22:25.147Z,5.50
2022-09-22T18:24:55.540Z,5.80
2022-09-22T18:27:25.478Z,6.10
2022-09-22T18:29:58.481Z,5.43
2022-09-22T18:32:27.610Z,3.83
2022-09-22T18:34:56.013Z,5.77
2022-09-22T18:37:25.124Z,6.73
2022-09-22T18:39:53.148Z,4.83
2022-09-22T18:42:24.271Z,5.10
2022-09-22T18:44:53.776Z,5.07
2022-09-22T18:47:23.136Z,5.37
2022-09-22T18:49:51.811Z,5.73
2022-09-22T18:52:22.898Z,6.63
2022-09-22T18:54:53.042Z,5.63
2022-09-22T18:57:21.786Z,5.17
2022-09-22T18:59:51.441Z,7.13
2022-09-22T19:02:23.354Z,11.40
2022-09-22T19:04:52.266Z,11.63
2022-09-22T19:07:42.492Z,6.87
2022-09-22T19:10:11.712Z,7.90
2022-09-22T19:12:40.375Z,8.70
2022-09-22T19:15:13.370Z,6.90
2022-09-22T19:17:44.646Z,6.87
2022-09-22T19:20:14.535Z,10.80
2022-09-22T19:22:42.830Z,6.97
2022-09-22T19:25:11.757Z,8.43
2022-09-22T19:27:40.678Z,7.90
2022-09-22T19:30:10.336Z,7.33
2022-09-22T19:32:38.987Z,6.57
2022-09-22T19:35:09.582Z,10.07
2022-09-22T19:37:37.869Z,11.20
2022-09-22T19:40:06.829Z,10.10
2022-09-22T19:42:40.083Z,10.20
2022-09-22T19:45:09.014Z,9.73
2022-09-22T19:47:37.169Z,15.47
2022-09-22T19:50:07.814Z,10.90
2022-09-22T19:52:38.155Z,12.13
2022-09-22T19:55:07.310Z,9.43
2022-09-22T19:57:41.047Z,8.53
2022-09-22T20:00:10.565Z,8.67
2022-09-22T20:02:42.126Z,10.37
2022-09-22T20:05:18.953Z,12.60
2022-09-22T20:07:48.386Z,8.40
2022-09-22T20:10:17.325Z,11.07
2022-09-22T20:12:45.447Z,9.77
2022-09-22T20:15:15.122Z,12.83
2022-09-22T20:17:45.963Z,11.17
2022-09-22T20:20:14.630Z,13.87
2022-09-22T20:22:42.559Z,13.57
2022-09-22T20:25:22.629Z,10.83
2022-09-22T20:27:50.773Z,9.77
2022-09-22T20:30:19.233Z,10.57
2022-09-22T20:32:47.593Z,12.03
2022-09-22T20:35:17.961Z,11.53
2022-09-22T20:37:46.169Z,11.07
2022-09-22T20:40:19.821Z,12.13
2022-09-22T20:42:48.837Z,9.77
2022-09-22T20:45:18.130Z,9.77
2022-09-22T20:47:46.148Z,11.07
2022-09-22T20:50:14.333Z,8.17
2022-09-22T20:52:43.437Z,10.00
2022-09-22T20:55:12.204Z,9.33
2022-09-22T20:57:41.689Z,10.03
2022-09-22T21:00:12.147Z,7.13
2022-09-22T21:02:40.414Z,7.43
2022-09-22T21:05:09.232Z,8.47
2022-09-22T21:07:37.253Z,7.80
2022-09-22T21:10:23.521Z,7.90
2022-09-22T21:12:55.003Z,7.73
2022-09-22T21:15:23.164Z,7.90
2022-09-22T21:17:52.642Z,6.60
2022-09-22T21:20:21.503Z,9.83
2022-09-22T21:22:49.628Z,6.13
2022-09-22T21:25:17.910Z,7.57
2022-09-22T21:27:47.005Z,8.57
2022-09-22T21:30:16.673Z,7.90
2022-09-22T21:32:44.965Z,7.03
2022-09-22T21:35:16.518Z,7.10
2022-09-22T21:37:44.762Z,9.43
2022-09-22T21:40:13.166Z,8.93
2022-09-22T21:42:41.452Z,9.60
2022-09-22T21:45:10.477Z,12.53
2022-09-22T21:47:39.941Z,10.80
2022-09-22T21:50:08.983Z,9.40
2022-09-22T21:52:38.389Z,8.60
2022-09-22T21:55:07.483Z,8.63
2022-09-22T21:57:35.466Z,8.37
2022-09-22T22:00:04.571Z,8.10
2022-09-22T22:02:55.071Z,9.43
2022-09-22T22:05:23.204Z,7.50
2022-09-22T22:07:51.167Z,10.03
2022-09-22T22:10:19.123Z,7.50
2022-09-22T22:12:47.055Z,11.27
2022-09-22T22:15:15.468Z,10.67
2022-09-22T22:17:44.668Z,7.53
2022-09-22T22:20:12.572Z,8.53
2022-09-22T22:22:40.467Z,7.90
2022-09-22T22:25:12.800Z,13.80
2022-09-22T22:27:40.836Z,7.37
2022-09-22T22:30:10.311Z,6.23
2022-09-22T22:32:38.276Z,7.73
2022-09-22T22:35:08.189Z,8.90
2022-09-22T22:37:36.087Z,9.17
2022-09-22T22:40:04.300Z,7.90
2022-09-22T22:42:32.243Z,6.70
2022-09-22T22:45:00.155Z,9.43
2022-09-22T22:47:28.118Z,6.63
2022-09-22T22:49:56.005Z,7.23
2022-09-22T22:52:25.293Z,8.87
2022-09-22T22:54:53.249Z,6.57
2022-09-22T22:57:21.135Z,7.17
2022-09-22T22:59:48.970Z,6.70
2022-09-22T23:02:16.844Z,9.60
2022-09-22T23:04:44.820Z,5.70
2022-09-22T23:07:12.675Z,7.50
2022-09-22T23:09:41.909Z,6.30
2022-09-22T23:12:10.507Z,5.33
2022-09-22T23:14:38.410Z,5.80
2022-09-22T23:17:06.364Z,6.63
2022-09-22T23:19:34.242Z,6.03
2022-09-22T23:22:04.078Z,6.93
2022-09-22T23:24:32.142Z,5.67
2022-09-22T23:27:01.642Z,5.53
2022-09-22T23:29:29.503Z,7.83
2022-09-22T23:31:57.609Z,6.13
2022-09-22T23:34:25.579Z,6.83
2022-09-22T23:36:53.603Z,6.23
2022-09-22T23:39:21.530Z,6.97
2022-09-22T23:41:51.742Z,5.37
2022-09-22T23:44:20.955Z,5.37
2022-09-22T23:46:48.824Z,7.43
2022-09-22T23:49:16.859Z,7.33
2022-09-22T23:51:44.772Z,4.70
2022-09-22T23:54:14.068Z,7.77
2022-09-22T23:56:41.998Z,5.30
2022-09-22T23:59:09.848Z,5.43
